createdAt,value
2018-07-13T00:10:25.226Z,101180.98
2018-07-13T00:11:26.022Z,101167.53
2018-07-13T00:12:26.792Z,101167.88
2018-07-13T00:13:27.565Z,101167.95
2018-07-13T00:14:28.336Z,101169.05
2018-07-13T00:15:29.107Z,101169.05
2018-07-13T00:16:29.903Z,101168.88
2018-07-13T00:17:30.675Z,101169.27
2018-07-13T00:18:31.455Z,101169.86
2018-07-13T00:19:32.219Z,101169.94
2018-07-13T00:20:32.989Z,101170.06
2018-07-13T00:21:33.791Z,101170.95
2018-07-13T00:22:34.560Z,101171.12
2018-07-13T00:23:35.333Z,101171.55
2018-07-13T00:24:36.103Z,101171.63
2018-07-13T00:25:36.877Z,101171.74
2018-07-13T00:26:37.673Z,101172.41
2018-07-13T00:27:38.446Z,101172.09
2018-07-13T00:28:39.220Z,101172.77
2018-07-13T00:29:39.997Z,101173.07
2018-07-13T00:30:40.772Z,101172.66
2018-07-13T00:31:41.572Z,101172.58
2018-07-13T00:32:42.341Z,101173.68
2018-07-13T00:33:43.114Z,101173.88
2018-07-13T00:34:43.888Z,101174.61
2018-07-13T00:35:44.663Z,101175.09
2018-07-13T00:36:45.463Z,101175.94
2018-07-13T00:37:46.229Z,101176.06
2018-07-13T00:38:47.006Z,101177.00
2018-07-13T00:39:47.778Z,101177.38
2018-07-13T00:40:48.546Z,101177.59
2018-07-13T00:41:49.350Z,101178.39
2018-07-13T00:42:50.116Z,101179.16
2018-07-13T00:43:50.889Z,101179.45
2018-07-13T00:44:51.661Z,101180.55
2018-07-13T00:45:51.433Z,101181.47
2018-07-13T00:46:53.231Z,101182.39
2018-07-13T00:47:54.004Z,101182.48
2018-07-13T00:48:54.777Z,101183.04
2018-07-13T00:49:55.550Z,101184.02
2018-07-13T00:50:56.328Z,101184.48
2018-07-13T00:51:57.120Z,101185.25
2018-07-13T00:52:57.896Z,101185.72
2018-07-13T00:53:58.669Z,101186.34
2018-07-13T00:54:59.445Z,101187.02
2018-07-13T00:56:00.210Z,101187.17
2018-07-13T00:57:01.019Z,101187.23
2018-07-13T00:58:01.786Z,101187.81
2018-07-13T00:59:02.559Z,101188.60
2018-07-13T01:00:03.331Z,101189.02
2018-07-13T01:01:04.111Z,101189.98
2018-07-13T01:02:04.902Z,101190.73
2018-07-13T01:03:05.680Z,101191.00
2018-07-13T01:04:06.449Z,101191.75
2018-07-13T01:05:07.223Z,101191.56
2018-07-13T01:06:07.995Z,101192.48
2018-07-13T01:07:08.789Z,101193.41
2018-07-13T01:08:09.562Z,101193.91
2018-07-13T01:09:10.336Z,101194.95
2018-07-13T01:10:11.111Z,101195.46
2018-07-13T01:11:11.884Z,101196.13
2018-07-13T01:12:12.680Z,101196.92
2018-07-13T01:13:13.452Z,101197.49
2018-07-13T01:14:14.228Z,101198.46
2018-07-13T01:15:14.996Z,101199.12
2018-07-13T01:16:14.771Z,101199.77
2018-07-13T01:17:16.565Z,101200.77
2018-07-13T01:18:17.338Z,101200.84
2018-07-13T01:19:18.108Z,101201.66
2018-07-13T01:20:18.881Z,101202.08
2018-07-13T01:21:19.653Z,101202.48
2018-07-13T01:22:20.455Z,101202.81
2018-07-13T01:23:21.226Z,101203.73
2018-07-13T01:24:22.002Z,101204.27
2018-07-13T01:25:22.769Z,101204.84
2018-07-13T01:26:23.542Z,101205.25
2018-07-13T01:27:24.340Z,101205.41
2018-07-13T01:28:25.115Z,101206.16
2018-07-13T01:29:25.885Z,101206.14
2018-07-13T01:30:26.660Z,101206.75
2018-07-13T01:31:27.432Z,101207.33
2018-07-13T01:32:28.231Z,101208.25
2018-07-13T01:33:29.002Z,101209.17
2018-07-13T01:34:29.774Z,101208.64
2018-07-13T01:35:30.550Z,101208.36
2018-07-13T01:36:31.320Z,101209.36
2018-07-13T01:37:32.121Z,101209.77
2018-07-13T01:38:32.891Z,101209.98
2018-07-13T01:39:33.662Z,101210.44
2018-07-13T01:40:34.436Z,101210.48
2018-07-13T01:41:35.208Z,101210.57
2018-07-13T01:42:36.007Z,101210.84
2018-07-13T01:43:36.787Z,101211.30
2018-07-13T01:44:37.571Z,101211.41
2018-07-13T01:45:38.333Z,101211.25
2018-07-13T01:46:39.108Z,101211.55
2018-07-13T01:47:39.903Z,101211.39
2018-07-13T01:48:40.679Z,101211.43
2018-07-13T01:49:41.456Z,101211.02
2018-07-13T01:50:42.227Z,101211.10
2018-07-13T01:51:43.004Z,101211.16
2018-07-13T01:52:43.799Z,101210.95
2018-07-13T01:53:44.575Z,101212.00
2018-07-13T01:54:45.347Z,101212.14
2018-07-13T01:55:46.239Z,101212.45
2018-07-13T01:56:45.895Z,101212.68
2018-07-13T01:57:47.692Z,101213.68
2018-07-13T01:58:48.466Z,101213.66
2018-07-13T01:59:49.617Z,101215.00
2018-07-13T02:08:25.418Z,101231.79
2018-07-13T02:09:26.206Z,101222.15
2018-07-13T02:10:26.978Z,101222.50
2018-07-13T02:11:27.746Z,101222.41
2018-07-13T02:12:28.518Z,101223.02
2018-07-13T02:13:29.312Z,101222.90
2018-07-13T02:14:30.086Z,101223.38
2018-07-13T02:15:30.856Z,101223.27
2018-07-13T02:16:31.637Z,101223.28
2018-07-13T02:17:32.407Z,101224.09
2018-07-13T02:18:33.209Z,101224.02
2018-07-13T02:19:33.980Z,101224.63
2018-07-13T02:20:34.745Z,101225.14
2018-07-13T02:21:35.518Z,101225.83
2018-07-13T02:22:36.294Z,101226.09
2018-07-13T02:23:37.088Z,101226.48
2018-07-13T02:24:37.859Z,101227.30
2018-07-13T02:25:38.630Z,101227.07
2018-07-13T02:26:39.406Z,101227.55
2018-07-13T02:27:40.180Z,101227.95
2018-07-13T02:28:40.969Z,101228.36
2018-07-13T02:29:41.738Z,101228.94
2018-07-13T02:30:42.512Z,101229.33
2018-07-13T02:31:43.282Z,101229.72
2018-07-13T02:32:44.056Z,101229.91
2018-07-13T02:33:44.925Z,101230.34
2018-07-13T02:34:44.620Z,101230.68
2018-07-13T02:35:46.389Z,101231.36
2018-07-13T02:36:47.166Z,101232.22
2018-07-13T02:37:47.938Z,101232.91
2018-07-13T02:38:48.733Z,101233.59
2018-07-13T02:39:49.500Z,101234.09
2018-07-13T02:40:50.272Z,101234.36
2018-07-13T02:41:51.043Z,101235.39
2018-07-13T02:42:51.820Z,101236.49
2018-07-13T02:43:52.611Z,101237.10
2018-07-13T02:44:53.386Z,101238.05
2018-07-13T02:45:54.186Z,101238.78
2018-07-13T02:46:54.930Z,101240.08
2018-07-13T02:47:55.703Z,101240.47
2018-07-13T02:48:56.500Z,101241.24
2018-07-13T02:49:57.269Z,101241.43
2018-07-13T02:50:58.042Z,101242.46
2018-07-13T02:51:58.818Z,101242.67
2018-07-13T02:52:59.593Z,101243.28
2018-07-13T02:54:00.389Z,101244.02
2018-07-13T02:55:01.162Z,101244.80
2018-07-13T02:56:01.935Z,101245.23
2018-07-13T02:57:02.707Z,101246.16
2018-07-13T02:58:03.475Z,101247.02
2018-07-13T02:59:04.271Z,101246.99
2018-07-13T03:00:05.044Z,101247.81
2018-07-13T03:01:05.823Z,101248.34
2018-07-13T03:02:06.594Z,101248.73
2018-07-13T03:03:07.367Z,101249.27
2018-07-13T03:04:08.161Z,101249.48
2018-07-13T03:05:08.932Z,101250.01
2018-07-13T03:06:09.713Z,101250.98
2018-07-13T03:07:10.476Z,101251.77
2018-07-13T03:08:11.251Z,101252.59
2018-07-13T03:09:12.051Z,101253.59
2018-07-13T03:10:12.819Z,101254.20
2018-07-13T03:11:13.595Z,101255.03
2018-07-13T03:12:14.369Z,101255.94
2018-07-13T03:13:15.133Z,101256.22
2018-07-13T03:14:15.928Z,101257.20
2018-07-13T03:15:16.703Z,101258.06
2018-07-13T03:16:17.479Z,101258.97
2018-07-13T03:17:18.244Z,101259.16
2018-07-13T03:18:19.017Z,101259.89
2018-07-13T03:19:19.816Z,101259.86
2018-07-13T03:20:20.588Z,101260.55
2018-07-13T03:21:21.359Z,101261.38
2018-07-13T03:22:22.129Z,101261.86
2018-07-13T03:23:22.901Z,101262.52
2018-07-13T03:24:23.696Z,101263.38
2018-07-13T03:25:24.469Z,101263.89
2018-07-13T03:26:25.245Z,101264.16
2018-07-13T03:27:26.021Z,101264.97
2018-07-13T03:28:26.790Z,101265.75
2018-07-13T03:29:27.584Z,101266.19
2018-07-13T03:30:28.359Z,101266.79
2018-07-13T03:31:29.130Z,101267.30
2018-07-13T03:32:29.904Z,101267.59
2018-07-13T03:33:30.675Z,101268.12
2018-07-13T03:34:31.485Z,101268.64
2018-07-13T03:35:32.245Z,101269.03
2018-07-13T03:36:33.019Z,101269.72
2018-07-13T03:37:33.789Z,101270.07
2018-07-13T03:38:34.570Z,101270.63
2018-07-13T03:39:35.358Z,101271.06
2018-07-13T03:40:36.134Z,101271.75
2018-07-13T03:41:36.908Z,101271.92
2018-07-13T03:42:37.676Z,101272.09
2018-07-13T03:43:38.453Z,101272.52
2018-07-13T03:44:39.295Z,101272.94
2018-07-13T03:45:40.064Z,101273.45
2018-07-13T03:46:40.830Z,101273.84
2018-07-13T03:47:41.604Z,101273.80
2018-07-13T03:48:42.377Z,101274.48
2018-07-13T03:49:43.170Z,101274.83
2018-07-13T03:50:43.941Z,101275.26
2018-07-13T03:51:44.714Z,101275.52
2018-07-13T03:52:45.486Z,101275.61
2018-07-13T03:53:46.262Z,101275.79
2018-07-13T03:54:47.058Z,101275.73
2018-07-13T03:55:47.933Z,101275.48
2018-07-13T03:56:48.004Z,101275.23
2018-07-13T03:57:49.180Z,101275.33
2018-07-13T03:58:48.376Z,101275.20
2018-07-13T03:59:48.551Z,101275.64
2018-07-13T04:00:48.761Z,101275.86
2018-07-13T04:03:43.235Z,101280.59
2018-07-13T04:04:44.006Z,101280.03
2018-07-13T04:05:44.801Z,101279.52
2018-07-13T04:06:45.571Z,101279.34
2018-07-13T04:07:46.342Z,101279.17
2018-07-13T04:08:47.112Z,101278.48
2018-07-13T04:09:47.886Z,101278.73
2018-07-13T04:10:48.680Z,101279.00
2018-07-13T04:11:49.454Z,101279.08
2018-07-13T04:12:50.220Z,101279.08
2018-07-13T04:13:50.994Z,101278.83
2018-07-13T04:14:51.769Z,101279.00
2018-07-13T04:15:52.566Z,101279.00
2018-07-13T04:16:53.339Z,101279.00
2018-07-13T04:17:54.112Z,101278.83
2018-07-13T04:18:54.883Z,101278.33
2018-07-13T04:19:55.652Z,101278.33
2018-07-13T04:20:56.455Z,101277.81
2018-07-13T04:21:57.222Z,101277.55
2018-07-13T04:22:57.994Z,101277.45
2018-07-13T04:23:58.765Z,101277.20
2018-07-13T04:24:59.536Z,101277.23
2018-07-13T04:26:00.333Z,101277.23
2018-07-13T04:27:01.103Z,101277.87
2018-07-13T04:28:01.879Z,101278.20
2018-07-13T04:29:02.645Z,101278.08
2018-07-13T04:30:03.417Z,101278.02
2018-07-13T04:31:04.216Z,101278.24
2018-07-13T04:32:04.986Z,101278.24
2018-07-13T04:33:05.767Z,101278.91
2018-07-13T04:34:06.560Z,101279.26
2018-07-13T04:35:07.302Z,101279.85
2018-07-13T04:36:08.101Z,101279.95
2018-07-13T04:37:08.871Z,101280.02
2018-07-13T04:38:09.645Z,101280.24
2018-07-13T04:39:10.415Z,101280.59
2018-07-13T04:40:11.187Z,101281.17
2018-07-13T04:41:12.044Z,101281.25
2018-07-13T04:42:11.757Z,101281.67
2018-07-13T04:43:13.529Z,101282.05
2018-07-13T04:44:14.300Z,101282.18
2018-07-13T04:45:15.081Z,101282.90
2018-07-13T04:46:15.870Z,101283.05
2018-07-13T04:47:16.643Z,101283.70
2018-07-13T04:48:17.412Z,101284.41
2018-07-13T04:49:18.183Z,101285.17
2018-07-13T04:50:19.023Z,101285.89
2018-07-13T04:51:18.753Z,101286.34
2018-07-13T04:52:20.526Z,101286.80
2018-07-13T04:53:21.299Z,101287.47
2018-07-13T04:54:22.068Z,101287.75
2018-07-13T04:55:22.850Z,101288.28
2018-07-13T04:56:23.645Z,101289.01
2018-07-13T04:57:24.420Z,101289.97
2018-07-13T04:58:25.186Z,101290.13
2018-07-13T04:59:25.961Z,101290.85
2018-07-13T05:00:26.731Z,101290.80
2018-07-13T05:01:27.534Z,101291.08
2018-07-13T05:02:28.302Z,101291.53
2018-07-13T05:03:29.078Z,101292.28
2018-07-13T05:04:29.847Z,101292.14
2018-07-13T05:05:30.622Z,101293.61
2018-07-13T05:06:31.417Z,101293.34
2018-07-13T05:07:32.188Z,101294.23
2018-07-13T05:08:32.968Z,101294.67
2018-07-13T05:09:33.740Z,101294.48
2018-07-13T05:10:34.518Z,101294.50
2018-07-13T05:11:35.312Z,101294.69
2018-07-13T05:12:36.085Z,101295.02
2018-07-13T05:13:36.859Z,101295.21
2018-07-13T05:14:37.634Z,101294.98
2018-07-13T05:15:38.404Z,101295.27
2018-07-13T05:16:39.206Z,101295.77
2018-07-13T05:17:39.975Z,101295.88
2018-07-13T05:18:40.748Z,101295.81
2018-07-13T05:19:41.519Z,101296.00
2018-07-13T05:20:42.293Z,101295.51
2018-07-13T05:21:43.090Z,101295.75
2018-07-13T05:22:43.868Z,101295.67
2018-07-13T05:23:44.637Z,101295.94
2018-07-13T05:24:45.410Z,101295.75
2018-07-13T05:25:46.178Z,101295.95
2018-07-13T05:26:46.978Z,101295.80
2018-07-13T05:27:47.751Z,101295.61
2018-07-13T05:28:48.520Z,101295.80
2018-07-13T05:29:49.294Z,101295.56
2018-07-13T05:30:50.134Z,101295.75
2018-07-13T05:31:49.865Z,101295.64
2018-07-13T05:32:51.636Z,101295.84
2018-07-13T05:33:52.413Z,101295.99
2018-07-13T05:34:53.182Z,101295.84
2018-07-13T05:35:53.954Z,101296.24
2018-07-13T05:36:54.750Z,101296.36
2018-07-13T05:37:55.522Z,101296.30
2018-07-13T05:38:56.293Z,101296.92
2018-07-13T05:39:57.072Z,101297.28
2018-07-13T05:40:57.841Z,101297.86
2018-07-13T05:41:58.637Z,101297.95
2018-07-13T05:42:59.407Z,101298.19
2018-07-13T05:44:00.183Z,101298.67
2018-07-13T05:45:00.954Z,101298.52
2018-07-13T05:46:01.728Z,101298.89
2018-07-13T05:47:02.529Z,101299.17
2018-07-13T05:48:03.299Z,101299.19
2018-07-13T05:49:04.070Z,101299.25
2018-07-13T05:50:04.844Z,101298.92
2018-07-13T05:51:05.618Z,101298.82
2018-07-13T05:52:06.415Z,101299.30
2018-07-13T05:53:07.959Z,101299.45
2018-07-13T05:54:08.151Z,101299.24
2018-07-13T05:55:07.327Z,101298.73
2018-07-13T05:58:22.431Z,101312.05
2018-07-13T05:59:23.200Z,101299.68
2018-07-13T06:00:23.972Z,101300.10
2018-07-13T06:01:24.742Z,101300.40
2018-07-13T06:02:25.592Z,101300.55
2018-07-13T06:03:25.308Z,101301.10
2018-07-13T06:04:27.081Z,101301.89
2018-07-13T06:05:27.851Z,101302.17
2018-07-13T06:06:28.626Z,101302.50
2018-07-13T06:07:29.421Z,101303.03
2018-07-13T06:08:30.196Z,101304.12
2018-07-13T06:09:30.975Z,101304.73
2018-07-13T06:10:31.751Z,101305.30
2018-07-13T06:11:32.512Z,101306.30
2018-07-13T06:12:33.312Z,101306.55
2018-07-13T06:13:34.085Z,101307.45
2018-07-13T06:14:34.863Z,101307.59
2018-07-13T06:15:35.669Z,101307.64
2018-07-13T06:16:35.395Z,101308.23
2018-07-13T06:17:37.199Z,101308.88
2018-07-13T06:18:37.962Z,101309.14
2018-07-13T06:19:38.735Z,101309.33
2018-07-13T06:20:39.510Z,101309.75
2018-07-13T06:21:40.279Z,101309.98
2018-07-13T06:22:41.078Z,101309.64
2018-07-13T06:23:41.849Z,101310.30
2018-07-13T06:24:42.617Z,101310.03
2018-07-13T06:25:43.388Z,101309.41
2018-07-13T06:26:44.163Z,101309.21
2018-07-13T06:27:44.960Z,101309.19
2018-07-13T06:28:45.731Z,101308.95
2018-07-13T06:29:46.502Z,101308.66
2018-07-13T06:30:47.278Z,101308.12
2018-07-13T06:31:48.050Z,101307.87
2018-07-13T06:32:48.845Z,101307.80
2018-07-13T06:33:49.615Z,101306.92
2018-07-13T06:34:50.392Z,101306.47
2018-07-13T06:35:51.163Z,101305.89
2018-07-13T06:36:51.939Z,101305.50
2018-07-13T06:37:52.734Z,101304.73
2018-07-13T06:38:53.505Z,101303.70
2018-07-13T06:39:54.279Z,101303.77
2018-07-13T06:40:55.055Z,101303.47
2018-07-13T06:41:55.825Z,101302.43
2018-07-13T06:42:56.636Z,101302.33
2018-07-13T06:43:57.402Z,101301.71
2018-07-13T06:44:58.178Z,101301.31
2018-07-13T06:45:58.946Z,101301.63
2018-07-13T06:46:59.727Z,101301.15
2018-07-13T06:48:00.518Z,101301.13
2018-07-13T06:49:01.294Z,101300.50
2018-07-13T06:50:02.066Z,101300.02
2018-07-13T06:51:02.841Z,101299.98
2018-07-13T06:52:03.610Z,101299.16
2018-07-13T06:53:04.412Z,101298.98
2018-07-13T06:54:05.180Z,101297.84
2018-07-13T06:55:05.958Z,101297.69
2018-07-13T06:56:06.726Z,101297.18
2018-07-13T06:57:07.502Z,101296.67
2018-07-13T06:58:08.299Z,101296.23
2018-07-13T06:59:09.066Z,101295.91
2018-07-13T07:00:09.839Z,101295.47
2018-07-13T07:01:10.616Z,101294.94
2018-07-13T07:02:11.383Z,101294.67
2018-07-13T07:03:12.186Z,101294.41
2018-07-13T07:04:12.956Z,101293.90
2018-07-13T07:05:13.733Z,101293.80
2018-07-13T07:06:14.500Z,101293.71
2018-07-13T07:07:15.279Z,101293.79
2018-07-13T07:08:16.068Z,101293.34
2018-07-13T07:09:16.841Z,101293.42
2018-07-13T07:10:17.615Z,101293.55
2018-07-13T07:11:18.392Z,101294.11
2018-07-13T07:12:19.160Z,101294.02
2018-07-13T07:13:19.958Z,101293.83
2018-07-13T07:14:20.729Z,101293.69
2018-07-13T07:15:21.508Z,101294.10
2018-07-13T07:16:22.277Z,101294.17
2018-07-13T07:17:23.053Z,101293.75
2018-07-13T07:18:23.847Z,101293.55
2018-07-13T07:19:24.620Z,101293.91
2018-07-13T07:20:25.390Z,101293.78
2018-07-13T07:21:26.168Z,101293.48
2018-07-13T07:22:26.106Z,101293.66
2018-07-13T07:23:26.826Z,101293.11
2018-07-13T07:24:28.617Z,101293.25
2018-07-13T07:25:28.373Z,101293.70
2018-07-13T07:26:30.147Z,101293.26
2018-07-13T07:27:30.916Z,101293.66
2018-07-13T07:28:31.716Z,101293.01
2018-07-13T07:29:32.488Z,101293.12
2018-07-13T07:30:33.314Z,101292.82
2018-07-13T07:31:33.035Z,101292.34
2018-07-13T07:32:34.810Z,101292.04
2018-07-13T07:33:35.603Z,101291.91
2018-07-13T07:34:36.378Z,101292.02
2018-07-13T07:35:37.152Z,101292.30
2018-07-13T07:36:37.923Z,101292.21
2018-07-13T07:37:38.932Z,101292.23
2018-07-13T07:38:38.656Z,101292.80
2018-07-13T07:39:40.679Z,101293.11
2018-07-13T07:40:40.376Z,101293.23
2018-07-13T07:41:42.147Z,101293.45
2018-07-13T07:42:42.928Z,101293.52
2018-07-13T07:43:43.721Z,101293.63
2018-07-13T07:44:44.491Z,101293.78
2018-07-13T07:45:45.263Z,101294.34
2018-07-13T07:46:46.033Z,101294.70
2018-07-13T07:47:46.805Z,101294.92
2018-07-13T07:48:47.608Z,101294.97
2018-07-13T07:49:48.379Z,101295.77
2018-07-13T07:50:49.150Z,101295.44
2018-07-13T07:51:50.025Z,101295.31
2018-07-13T07:52:50.080Z,101295.61
2018-07-13T07:53:51.294Z,101296.09
2018-07-13T07:54:50.485Z,101296.25
2018-07-13T07:54:57.931Z,101293.35
2018-07-13T07:55:58.709Z,101296.64
2018-07-13T07:56:59.477Z,101295.74
2018-07-13T07:58:00.255Z,101295.52
2018-07-13T07:59:01.047Z,101294.73
2018-07-13T08:00:01.820Z,101294.41
2018-07-13T08:01:02.591Z,101293.92
2018-07-13T08:02:03.363Z,101293.16
2018-07-13T08:03:04.138Z,101292.93
2018-07-13T08:04:04.943Z,101292.27
2018-07-13T08:05:04.702Z,101291.23
2018-07-13T08:06:06.488Z,101290.78
2018-07-13T08:07:07.907Z,101290.22
2018-07-13T08:08:07.021Z,101289.70
2018-07-13T08:09:08.816Z,101288.61
2018-07-13T08:10:09.590Z,101288.16
2018-07-13T08:11:10.366Z,101287.58
2018-07-13T08:12:11.132Z,101287.36
2018-07-13T08:13:11.912Z,101286.60
2018-07-13T08:14:13.092Z,101285.56
2018-07-13T08:15:12.483Z,101285.08
2018-07-13T08:16:14.259Z,101284.14
2018-07-13T08:17:15.023Z,101282.61
2018-07-13T08:18:15.795Z,101281.30
2018-07-13T08:19:16.591Z,101280.27
2018-07-13T08:20:17.364Z,101279.70
2018-07-13T08:21:18.136Z,101278.80
2018-07-13T08:22:18.913Z,101277.71
2018-07-13T08:23:19.685Z,101276.23
2018-07-13T08:24:20.483Z,101275.52
2018-07-13T08:25:21.255Z,101274.91
2018-07-13T08:26:22.031Z,101273.34
2018-07-13T08:27:22.804Z,101272.47
2018-07-13T08:28:23.574Z,101271.55
2018-07-13T08:29:24.371Z,101270.39
2018-07-13T08:30:25.144Z,101269.59
2018-07-13T08:31:25.914Z,101269.19
2018-07-13T08:32:26.694Z,101267.62
2018-07-13T08:33:27.465Z,101266.56
2018-07-13T08:34:28.261Z,101265.95
2018-07-13T08:35:29.033Z,101265.11
2018-07-13T08:36:29.807Z,101263.76
2018-07-13T08:37:30.574Z,101263.45
2018-07-13T08:38:31.348Z,101262.69
2018-07-13T08:39:32.154Z,101261.43
2018-07-13T08:40:32.918Z,101260.91
2018-07-13T08:41:33.699Z,101259.95
2018-07-13T08:42:34.461Z,101259.66
2018-07-13T08:43:35.235Z,101259.83
2018-07-13T08:44:36.031Z,101259.28
2018-07-13T08:45:36.830Z,101259.02
2018-07-13T08:46:37.575Z,101259.00
2018-07-13T08:47:38.345Z,101259.25
2018-07-13T08:48:39.118Z,101259.26
2018-07-13T08:49:39.915Z,101259.23
2018-07-13T08:50:40.688Z,101258.89
2018-07-13T08:51:41.540Z,101258.99
2018-07-13T08:52:41.240Z,101258.30
2018-07-13T08:53:43.008Z,101258.44
2018-07-13T08:54:43.810Z,101257.77
2018-07-13T08:55:44.695Z,101257.17
2018-07-13T08:56:44.616Z,101256.70
2018-07-13T08:57:45.311Z,101256.42
2018-07-13T08:58:47.082Z,101256.17
2018-07-13T08:59:47.927Z,101255.98
2018-07-13T09:00:47.648Z,101255.55
2018-07-13T09:01:49.625Z,101255.05
2018-07-13T09:02:49.319Z,101254.45
2018-07-13T09:03:51.090Z,101253.98
2018-07-13T09:04:51.986Z,101254.28
2018-07-13T09:05:51.781Z,101253.63
2018-07-13T09:06:52.449Z,101253.73
2018-07-13T09:07:54.218Z,101253.75
2018-07-13T09:08:54.989Z,101253.81
2018-07-13T09:09:55.785Z,101253.38
2018-07-13T09:10:56.556Z,101252.31
2018-07-13T09:11:57.433Z,101252.50
2018-07-13T09:12:57.171Z,101252.14
2018-07-13T09:13:57.878Z,101252.05
2018-07-13T09:14:59.676Z,101251.13
2018-07-13T09:16:00.447Z,101250.70
2018-07-13T09:17:01.217Z,101249.55
2018-07-13T09:18:01.991Z,101249.19
2018-07-13T09:19:02.764Z,101248.16
2018-07-13T09:20:03.567Z,101247.96
2018-07-13T09:21:04.334Z,101247.44
2018-07-13T09:22:05.102Z,101246.83
2018-07-13T09:23:05.877Z,101246.27
2018-07-13T09:24:06.727Z,101245.88
2018-07-13T09:25:06.445Z,101245.28
2018-07-13T09:26:08.217Z,101244.98
2018-07-13T09:27:08.996Z,101244.09
2018-07-13T09:28:09.764Z,101243.50
2018-07-13T09:29:10.544Z,101243.30
2018-07-13T09:30:11.332Z,101242.92
2018-07-13T09:31:12.165Z,101242.54
2018-07-13T09:32:11.880Z,101242.33
2018-07-13T09:33:13.654Z,101241.87
2018-07-13T09:34:14.435Z,101241.75
2018-07-13T09:35:15.230Z,101241.56
2018-07-13T09:36:16.001Z,101241.09
2018-07-13T09:37:16.781Z,101241.34
2018-07-13T09:38:17.653Z,101240.95
2018-07-13T09:39:17.322Z,101240.63
2018-07-13T09:40:19.120Z,101240.56
2018-07-13T09:41:19.889Z,101240.34
2018-07-13T09:42:20.664Z,101239.69
2018-07-13T09:43:21.435Z,101239.75
2018-07-13T09:44:22.211Z,101238.95
2018-07-13T09:45:23.009Z,101238.70
2018-07-13T09:46:23.780Z,101238.11
2018-07-13T09:47:24.549Z,101237.48
2018-07-13T09:48:25.323Z,101237.02
2018-07-13T09:49:26.093Z,101237.20
2018-07-13T09:50:26.894Z,101236.78
2018-07-13T09:51:27.662Z,101236.77
2018-07-13T09:52:28.438Z,101235.68
2018-07-13T09:53:29.211Z,101235.25
2018-07-13T09:54:30.084Z,101234.58
2018-07-13T09:55:57.310Z,101240.20
2018-07-13T09:56:58.101Z,101230.03
2018-07-13T09:57:58.853Z,101229.58
2018-07-13T09:58:59.621Z,101229.13
2018-07-13T10:00:00.397Z,101228.42
2018-07-13T10:01:01.209Z,101228.47
2018-07-13T10:02:00.965Z,101228.42
2018-07-13T10:03:02.731Z,101228.38
2018-07-13T10:04:03.509Z,101228.73
2018-07-13T10:05:04.281Z,101228.93
2018-07-13T10:06:05.081Z,101229.41
2018-07-13T10:07:05.846Z,101229.62
2018-07-13T10:08:06.616Z,101230.16
2018-07-13T10:09:07.390Z,101230.31
2018-07-13T10:10:08.164Z,101230.91
2018-07-13T10:11:08.958Z,101231.44
2018-07-13T10:12:09.729Z,101231.14
2018-07-13T10:13:10.499Z,101231.47
2018-07-13T10:14:11.278Z,101231.80
2018-07-13T10:15:12.047Z,101232.56
2018-07-13T10:16:12.841Z,101232.84
2018-07-13T10:17:13.614Z,101232.50
2018-07-13T10:18:14.385Z,101232.77
2018-07-13T10:19:15.154Z,101233.39
2018-07-13T10:20:15.929Z,101232.69
2018-07-13T10:21:16.722Z,101232.65
2018-07-13T10:22:17.496Z,101232.55
2018-07-13T10:23:18.265Z,101232.13
2018-07-13T10:24:19.038Z,101232.10
2018-07-13T10:25:19.816Z,101232.02
2018-07-13T10:26:20.606Z,101232.16
2018-07-13T10:27:21.379Z,101232.27
2018-07-13T10:28:22.148Z,101232.26
2018-07-13T10:29:22.921Z,101232.00
2018-07-13T10:30:23.693Z,101231.91
2018-07-13T10:31:24.490Z,101231.34
2018-07-13T10:32:25.273Z,101231.41
2018-07-13T10:33:26.037Z,101231.05
2018-07-13T10:34:26.809Z,101230.33
2018-07-13T10:35:27.623Z,101229.95
2018-07-13T10:36:27.377Z,101229.07
2018-07-13T10:37:29.149Z,101228.51
2018-07-13T10:38:29.929Z,101227.79
2018-07-13T10:39:30.693Z,101227.27
2018-07-13T10:40:31.467Z,101226.86
2018-07-13T10:41:32.269Z,101226.03
2018-07-13T10:42:33.040Z,101225.05
2018-07-13T10:43:33.810Z,101224.86
2018-07-13T10:44:34.583Z,101223.98
2018-07-13T10:45:35.355Z,101223.91
2018-07-13T10:46:36.157Z,101223.45
2018-07-13T10:47:36.941Z,101222.75
2018-07-13T10:48:36.699Z,101222.16
2018-07-13T10:49:38.468Z,101221.75
2018-07-13T10:50:39.242Z,101220.81
2018-07-13T10:51:40.041Z,101220.23
2018-07-13T10:52:40.815Z,101219.57
2018-07-13T10:53:41.592Z,101219.13
2018-07-13T10:54:42.361Z,101218.77
2018-07-13T10:55:43.140Z,101217.64
2018-07-13T10:56:43.933Z,101217.53
2018-07-13T10:57:44.703Z,101216.75
2018-07-13T10:58:45.519Z,101216.34
2018-07-13T10:59:45.257Z,101215.73
2018-07-13T11:00:47.024Z,101215.53
2018-07-13T11:01:47.825Z,101215.52
2018-07-13T11:02:48.628Z,101215.32
2018-07-13T11:03:48.368Z,101215.47
2018-07-13T11:04:50.144Z,101215.47
2018-07-13T11:05:50.918Z,101215.45
2018-07-13T11:06:51.714Z,101215.55
2018-07-13T11:07:52.489Z,101215.94
2018-07-13T11:08:53.258Z,101215.45
2018-07-13T11:09:54.034Z,101214.87
2018-07-13T11:10:54.804Z,101213.83
2018-07-13T11:11:55.601Z,101213.66
2018-07-13T11:12:56.372Z,101212.60
2018-07-13T11:13:57.160Z,101212.43
2018-07-13T11:14:56.915Z,101211.31
2018-07-13T11:15:58.691Z,101210.97
2018-07-13T11:16:59.493Z,101210.16
2018-07-13T11:18:00.331Z,101209.53
2018-07-13T11:19:00.049Z,101208.94
2018-07-13T11:20:01.817Z,101208.20
2018-07-13T11:21:02.590Z,101207.37
2018-07-13T11:22:03.385Z,101206.45
2018-07-13T11:23:04.157Z,101206.32
2018-07-13T11:24:04.939Z,101205.50
2018-07-13T11:25:05.711Z,101204.12
2018-07-13T11:26:06.479Z,101203.33
2018-07-13T11:27:07.279Z,101202.36
2018-07-13T11:28:08.049Z,101201.84
2018-07-13T11:29:08.825Z,101201.61
2018-07-13T11:30:09.597Z,101200.56
2018-07-13T11:31:10.372Z,101199.20
2018-07-13T11:32:11.171Z,101198.57
2018-07-13T11:33:11.941Z,101197.77
2018-07-13T11:34:12.720Z,101197.48
2018-07-13T11:35:13.489Z,101197.14
2018-07-13T11:36:14.264Z,101196.37
2018-07-13T11:37:15.173Z,101196.30
2018-07-13T11:38:14.834Z,101196.02
2018-07-13T11:39:16.608Z,101195.61
2018-07-13T11:40:17.383Z,101195.82
2018-07-13T11:41:18.158Z,101194.95
2018-07-13T11:42:18.954Z,101194.53
2018-07-13T11:43:19.726Z,101194.12
2018-07-13T11:44:20.502Z,101193.59
2018-07-13T11:45:21.273Z,101192.94
2018-07-13T11:46:22.046Z,101192.53
2018-07-13T11:47:22.844Z,101191.77
2018-07-13T11:48:23.615Z,101191.48
2018-07-13T11:49:24.486Z,101190.93
2018-07-13T11:50:24.545Z,101189.89
2018-07-13T11:51:25.729Z,101189.08
2018-07-13T11:52:24.933Z,101187.89
2018-07-13T11:53:25.136Z,101187.08
2018-07-13T12:08:56.317Z,101162.14